createdAt,value
2022-08-29T00:01:30.167Z,18.55
2022-08-29T00:04:37.536Z,18.55
2022-08-29T00:07:30.631Z,18.57
2022-08-29T00:10:20.510Z,18.55
2022-08-29T00:12:53.737Z,18.58
2022-08-29T00:15:45.603Z,18.56
2022-08-29T00:18:19.393Z,18.59
2022-08-29T00:21:44.072Z,18.60
2022-08-29T00:25:10.156Z,18.57
2022-08-29T00:28:34.076Z,18.47
2022-08-29T00:31:07.253Z,18.39
2022-08-29T00:33:58.931Z,18.31
2022-08-29T00:36:49.936Z,18.28
2022-08-29T00:43:04.404Z,18.31
2022-08-29T00:46:07.098Z,18.36
2022-08-29T00:52:05.768Z,18.33
2022-08-29T00:55:33.105Z,18.37
2022-08-29T00:58:30.399Z,18.45
2022-08-29T01:08:46.748Z,18.26
2022-08-29T01:11:38.513Z,17.99
2022-08-29T01:14:30.502Z,17.77
2022-08-29T01:17:05.249Z,17.67
2022-08-29T01:20:17.708Z,17.70
2022-08-29T01:23:19.609Z,17.74
2022-08-29T01:26:29.996Z,17.76
2022-08-29T01:29:20.408Z,17.83
2022-08-29T01:32:28.032Z,18.00
2022-08-29T01:35:20.228Z,18.09
2022-08-29T01:38:10.661Z,18.17
2022-08-29T01:44:08.319Z,18.26
2022-08-29T01:47:14.831Z,18.38
2022-08-29T01:50:40.308Z,18.39
2022-08-29T01:56:58.271Z,18.48
2022-08-29T01:59:49.876Z,18.48
2022-08-29T02:03:13.805Z,18.47
2022-08-29T02:12:23.318Z,18.51
2022-08-29T02:14:56.004Z,18.45
2022-08-29T02:17:29.776Z,18.42
2022-08-29T02:20:03.206Z,18.37
2022-08-29T02:22:36.001Z,18.32
2022-08-29T02:25:25.504Z,18.27
2022-08-29T02:31:09.731Z,18.12
2022-08-29T02:37:09.962Z,17.97
2022-08-29T02:40:31.599Z,17.94
2022-08-29T02:46:46.238Z,17.73
2022-08-29T02:49:38.490Z,17.81
2022-08-29T02:56:30.223Z,17.89
2022-08-29T02:59:55.776Z,17.84
2022-08-29T03:05:22.396Z,17.80
2022-08-29T03:15:22.558Z,17.84
2022-08-29T03:17:55.525Z,17.86
2022-08-29T03:20:29.228Z,17.86
2022-08-29T03:23:54.902Z,17.85
2022-08-29T03:26:27.925Z,17.83
2022-08-29T03:29:35.884Z,17.80
2022-08-29T03:32:09.322Z,17.79
2022-08-29T03:35:22.987Z,17.74
2022-08-29T03:38:14.854Z,17.64
2022-08-29T03:41:06.405Z,17.48
2022-08-29T03:44:14.220Z,17.46
2022-08-29T03:47:03.519Z,17.51
2022-08-29T03:49:55.041Z,17.53
2022-08-29T03:52:46.801Z,17.59
2022-08-29T03:55:37.184Z,17.61
2022-08-29T03:58:51.915Z,17.67
2022-08-29T04:02:01.464Z,17.76
2022-08-29T04:08:00.515Z,17.64
2022-08-29T04:10:51.409Z,17.63
2022-08-29T04:16:52.231Z,17.58
2022-08-29T04:19:42.356Z,17.55
2022-08-29T04:22:15.395Z,17.49
2022-08-29T04:28:31.996Z,17.26
2022-08-29T04:31:22.323Z,17.05
2022-08-29T04:34:14.906Z,17.02
2022-08-29T04:37:41.421Z,17.14
2022-08-29T04:40:32.058Z,17.20
2022-08-29T04:47:04.119Z,17.22
2022-08-29T04:50:15.684Z,17.26
2022-08-29T04:53:06.300Z,17.34
2022-08-29T04:59:38.896Z,18.32
2022-08-29T05:06:14.824Z,19.15
2022-08-29T05:09:22.271Z,19.58
2022-08-29T05:11:55.159Z,20.12
2022-08-29T05:15:25.022Z,20.65
2022-08-29T05:18:52.321Z,21.05
2022-08-29T05:21:42.287Z,21.38
2022-08-29T05:24:15.384Z,21.59
2022-08-29T05:30:34.976Z,22.18
2022-08-29T05:33:44.769Z,22.60
2022-08-29T05:37:12.162Z,22.84
2022-08-29T05:40:20.574Z,23.14
2022-08-29T05:47:11.604Z,24.44
2022-08-29T05:49:46.205Z,24.65
2022-08-29T05:52:18.552Z,24.99
2022-08-29T05:55:10.956Z,25.25
2022-08-29T05:58:18.524Z,25.41
2022-08-29T06:01:43.017Z,25.73
2022-08-29T06:04:49.486Z,25.63
2022-08-29T06:07:39.243Z,25.58
2022-08-29T06:10:29.431Z,25.51
2022-08-29T06:13:01.983Z,25.72
2022-08-29T06:16:11.744Z,26.09
2022-08-29T06:19:18.894Z,26.47
2022-08-29T06:21:55.504Z,26.74
2022-08-29T06:24:47.260Z,26.66
2022-08-29T06:30:44.687Z,27.03
2022-08-29T06:33:56.178Z,27.30
2022-08-29T06:40:57.328Z,27.18
2022-08-29T06:43:28.811Z,27.23
2022-08-29T06:46:36.325Z,27.20
2022-08-29T06:52:02.316Z,27.41
2022-08-29T06:57:46.104Z,27.43
2022-08-29T07:00:36.217Z,27.86
2022-08-29T07:03:45.094Z,28.28
2022-08-29T07:06:37.128Z,28.42
2022-08-29T07:12:56.101Z,28.96
2022-08-29T07:18:57.774Z,28.99
2022-08-29T07:21:47.815Z,29.18
2022-08-29T07:27:45.074Z,29.52
2022-08-29T07:30:35.077Z,29.81
2022-08-29T07:33:41.780Z,30.27
2022-08-29T07:39:41.444Z,30.81
2022-08-29T07:42:32.582Z,30.83
2022-08-29T07:45:23.133Z,30.88
2022-08-29T07:47:56.219Z,31.02
2022-08-29T07:50:46.474Z,30.97
2022-08-29T07:53:36.324Z,30.96
2022-08-29T07:59:40.071Z,30.63
2022-08-29T08:02:29.409Z,30.60
2022-08-29T08:05:22.532Z,30.45
2022-08-29T08:11:37.980Z,30.31
2022-08-29T08:14:11.275Z,30.59
2022-08-29T08:17:44.390Z,30.89
2022-08-29T08:20:17.307Z,31.34
2022-08-29T08:22:49.788Z,31.73
2022-08-29T08:25:39.307Z,31.84
2022-08-29T08:31:22.687Z,32.00
2022-08-29T08:33:55.751Z,32.00
2022-08-29T08:36:46.874Z,32.16
2022-08-29T08:39:40.821Z,32.24
2022-08-29T08:42:27.799Z,32.51
2022-08-29T08:45:26.907Z,32.55
2022-08-29T08:48:35.917Z,32.55
2022-08-29T08:51:15.584Z,32.55
2022-08-29T08:53:50.477Z,32.81
2022-08-29T08:57:03.166Z,33.03
2022-08-29T08:59:39.599Z,32.91
2022-08-29T09:09:17.887Z,33.36
2022-08-29T09:12:38.904Z,33.61
2022-08-29T09:18:53.924Z,33.74
2022-08-29T09:21:45.281Z,33.87
2022-08-29T09:24:28.416Z,33.94
2022-08-29T09:27:18.415Z,34.24
2022-08-29T09:37:28.223Z,34.75
2022-08-29T09:43:54.224Z,34.98
2022-08-29T09:47:02.263Z,35.08
2022-08-29T09:49:51.620Z,35.24
2022-08-29T09:53:02.912Z,35.59
2022-08-29T09:56:01.964Z,35.53
2022-08-29T09:59:17.756Z,35.90
2022-08-29T10:08:40.145Z,35.89
2022-08-29T10:11:23.201Z,35.94
2022-08-29T10:14:14.501Z,36.10
2022-08-29T10:17:42.234Z,36.53
2022-08-29T10:20:15.358Z,36.51
2022-08-29T10:23:14.515Z,36.84
2022-08-29T10:26:13.900Z,37.29
2022-08-29T10:29:38.367Z,37.29
2022-08-29T10:32:49.407Z,37.56
2022-08-29T10:35:54.225Z,37.36
2022-08-29T10:45:36.435Z,37.66
2022-08-29T10:48:11.921Z,37.48
2022-08-29T10:51:12.037Z,37.42
2022-08-29T10:57:39.363Z,37.10
2022-08-29T11:00:39.319Z,37.34
2022-08-29T11:04:03.501Z,37.37
2022-08-29T11:07:17.864Z,37.54
2022-08-29T11:09:55.732Z,37.57
2022-08-29T11:13:11.695Z,37.69
2022-08-29T11:16:20.165Z,37.40
2022-08-29T11:30:11.921Z,37.45
2022-08-29T11:32:55.217Z,37.57
2022-08-29T11:36:03.790Z,37.51
2022-08-29T11:39:31.159Z,37.41
2022-08-29T11:42:53.579Z,37.01
2022-08-29T11:46:00.438Z,36.71
2022-08-29T11:49:26.163Z,36.63
2022-08-29T11:52:43.100Z,36.89
2022-08-29T12:02:05.973Z,37.04
2022-08-29T12:05:16.609Z,37.15
2022-08-29T12:08:36.023Z,37.06
2022-08-29T12:15:10.872Z,37.23
2022-08-29T12:18:03.841Z,37.26
2022-08-29T12:24:08.653Z,36.74
2022-08-29T12:29:55.125Z,36.67
2022-08-29T12:36:32.415Z,36.71
2022-08-29T12:39:38.050Z,36.72
2022-08-29T12:45:50.693Z,36.76
2022-08-29T12:48:46.316Z,36.65
2022-08-29T12:52:24.307Z,36.64
2022-08-29T12:55:17.388Z,36.75
2022-08-29T12:58:09.791Z,36.77
2022-08-29T13:01:30.002Z,36.55
2022-08-29T13:04:44.563Z,36.44
2022-08-29T13:07:56.379Z,36.37
2022-08-29T13:11:33.675Z,36.16
2022-08-29T13:14:13.741Z,36.19
2022-08-29T13:17:03.222Z,36.09
2022-08-29T13:20:27.809Z,36.33
2022-08-29T13:23:22.430Z,35.89
2022-08-29T13:29:28.058Z,35.12
2022-08-29T13:32:27.019Z,35.09
2022-08-29T13:38:42.002Z,34.98
2022-08-29T13:42:17.999Z,34.73
2022-08-29T13:45:42.074Z,34.64
2022-08-29T13:48:37.633Z,34.56
2022-08-29T13:51:13.558Z,34.35
2022-08-29T13:54:03.403Z,33.91
2022-08-29T13:56:54.920Z,33.55
2022-08-29T13:59:48.360Z,33.20
2022-08-29T14:06:22.372Z,32.81
2022-08-29T14:12:44.303Z,32.49
2022-08-29T14:15:36.550Z,32.29
2022-08-29T14:18:27.023Z,32.15
2022-08-29T14:21:03.931Z,32.01
2022-08-29T14:24:12.543Z,31.84
2022-08-29T14:27:21.027Z,31.71
2022-08-29T14:29:54.235Z,31.60
2022-08-29T14:33:02.236Z,31.51
2022-08-29T14:35:52.193Z,31.34
2022-08-29T14:41:50.493Z,31.20
2022-08-29T14:48:40.802Z,31.04
2022-08-29T14:54:20.607Z,30.90
2022-08-29T14:57:29.614Z,30.87
2022-08-29T15:03:46.704Z,30.86
2022-08-29T15:06:39.671Z,30.89
2022-08-29T15:09:30.502Z,30.90
2022-08-29T15:15:30.791Z,30.80
2022-08-29T15:18:59.558Z,30.70
2022-08-29T15:21:33.117Z,30.72
2022-08-29T15:24:40.809Z,30.72
2022-08-29T15:27:13.697Z,30.57
2022-08-29T15:30:03.893Z,30.52
2022-08-29T15:32:54.027Z,30.55
2022-08-29T15:36:37.176Z,30.56
2022-08-29T15:39:29.010Z,30.52
2022-08-29T15:45:30.334Z,30.48
2022-08-29T15:48:39.344Z,30.37
2022-08-29T15:54:39.040Z,30.14
2022-08-29T15:57:11.565Z,30.15
2022-08-29T16:03:26.869Z,30.15
2022-08-29T16:09:41.797Z,30.16
2022-08-29T16:12:31.548Z,30.20
2022-08-29T16:15:21.423Z,30.26
2022-08-29T16:21:02.457Z,30.29
2022-08-29T16:23:35.622Z,30.25
2022-08-29T16:26:08.280Z,30.16
2022-08-29T16:28:58.208Z,30.11
2022-08-29T16:31:48.059Z,30.10
2022-08-29T16:38:06.340Z,29.99
2022-08-29T16:40:55.820Z,29.95
2022-08-29T16:43:28.325Z,29.86
2022-08-29T16:46:00.989Z,29.72
2022-08-29T16:48:35.012Z,29.60
2022-08-29T16:54:52.094Z,29.34
2022-08-29T17:01:49.901Z,28.93
2022-08-29T17:05:16.792Z,28.84
2022-08-29T17:08:06.994Z,28.80
2022-08-29T17:11:13.900Z,28.74
2022-08-29T17:13:45.291Z,28.62
2022-08-29T17:16:35.009Z,28.54
2022-08-29T17:25:05.676Z,28.26
2022-08-29T17:28:16.604Z,28.16
2022-08-29T17:31:25.855Z,27.98
2022-08-29T17:34:18.182Z,27.86
2022-08-29T17:43:47.130Z,27.52
2022-08-29T17:46:22.060Z,27.33
2022-08-29T17:48:54.594Z,27.20
2022-08-29T17:51:28.395Z,27.03
2022-08-29T17:58:03.435Z,26.61
2022-08-29T18:07:28.360Z,26.29
2022-08-29T18:10:03.934Z,26.19
2022-08-29T18:13:11.003Z,26.11
2022-08-29T18:15:43.787Z,26.03
2022-08-29T18:18:52.561Z,25.91
2022-08-29T18:21:44.967Z,25.78
2022-08-29T18:24:53.658Z,25.70
2022-08-29T18:28:02.530Z,25.65
2022-08-29T18:30:51.978Z,25.60
2022-08-29T18:34:01.461Z,25.56
2022-08-29T18:39:58.952Z,25.54
2022-08-29T18:43:06.216Z,25.52
2022-08-29T18:49:06.796Z,25.52
2022-08-29T18:51:39.721Z,25.52
2022-08-29T18:54:47.967Z,25.51
2022-08-29T18:57:55.106Z,25.51
2022-08-29T19:01:03.659Z,25.49
2022-08-29T19:03:54.249Z,25.46
2022-08-29T19:07:00.664Z,25.40
2022-08-29T19:12:42.622Z,25.25
2022-08-29T19:15:41.280Z,25.21
2022-08-29T19:22:16.075Z,25.08
2022-08-29T19:25:07.099Z,25.05
2022-08-29T19:30:49.620Z,24.75
2022-08-29T19:34:14.360Z,24.64
2022-08-29T19:37:21.466Z,24.54
2022-08-29T19:39:53.938Z,24.46
2022-08-29T19:45:19.529Z,24.12
2022-08-29T19:48:29.459Z,23.85
2022-08-29T19:55:21.939Z,23.49
2022-08-29T19:58:31.207Z,23.36
2022-08-29T20:01:42.782Z,23.33
2022-08-29T20:04:15.787Z,23.32
2022-08-29T20:07:08.321Z,23.25
2022-08-29T20:09:59.462Z,23.11
2022-08-29T20:13:29.293Z,22.91
2022-08-29T20:16:45.662Z,22.99
2022-08-29T20:19:35.933Z,23.06
2022-08-29T20:22:30.392Z,23.08
2022-08-29T20:25:48.027Z,23.11
2022-08-29T20:28:54.800Z,23.22
2022-08-29T20:31:28.161Z,23.32
2022-08-29T20:34:19.525Z,23.34
2022-08-29T20:37:14.242Z,23.23
2022-08-29T20:40:06.188Z,23.11
2022-08-29T20:46:22.182Z,22.85
2022-08-29T20:54:54.024Z,22.76
2022-08-29T20:57:26.558Z,22.73
2022-08-29T20:59:59.086Z,22.76
2022-08-29T21:06:48.987Z,22.86
2022-08-29T21:09:22.181Z,22.82
2022-08-29T21:12:29.139Z,22.77
2022-08-29T21:15:36.323Z,22.86
2022-08-29T21:18:43.982Z,22.89
2022-08-29T21:24:41.422Z,22.79
2022-08-29T21:30:57.707Z,22.89
2022-08-29T21:37:16.461Z,23.04
2022-08-29T21:43:31.824Z,23.05
2022-08-29T21:46:43.586Z,23.05
2022-08-29T21:49:34.155Z,23.09
2022-08-29T21:52:41.097Z,23.09
2022-08-29T22:01:13.749Z,22.26
2022-08-29T22:04:28.548Z,21.97
2022-08-29T22:07:19.742Z,21.76
2022-08-29T22:16:27.497Z,21.23
2022-08-29T22:19:17.563Z,21.14
2022-08-29T22:21:52.929Z,21.13
2022-08-29T22:28:27.112Z,21.24
2022-08-29T22:30:59.855Z,21.24
2022-08-29T22:33:50.060Z,21.26
2022-08-29T22:36:58.409Z,21.13
2022-08-29T22:40:05.230Z,21.06
2022-08-29T22:42:55.257Z,21.05
2022-08-29T22:45:48.763Z,21.18
2022-08-29T22:48:38.493Z,21.35
2022-08-29T22:51:47.449Z,21.48
2022-08-29T22:54:38.690Z,21.49
2022-08-29T22:57:46.452Z,21.52
2022-08-29T23:03:48.443Z,21.56
2022-08-29T23:06:55.434Z,21.54
2022-08-29T23:10:03.588Z,21.56
2022-08-29T23:12:53.872Z,21.61
2022-08-29T23:16:19.159Z,21.70
2022-08-29T23:19:12.281Z,21.79
2022-08-29T23:22:19.466Z,21.89
2022-08-29T23:25:45.321Z,22.02
2022-08-29T23:28:36.224Z,22.11
2022-08-29T23:31:46.405Z,22.09
2022-08-29T23:34:19.230Z,22.05
2022-08-29T23:37:10.476Z,21.99
2022-08-29T23:49:36.490Z,21.60
